sensor_id;sensor_type;location;lat;lon;timestamp;P1;durP1;ratioP1;P2;durP2;ratioP2
84168;SDS011;74295;50.146;8.794;2024-01-10T00:02:25;44.73;;;18.27;;
84168;SDS011;74295;50.146;8.794;2024-01-10T00:12:28;38.63;;;19.40;;
84168;SDS011;74295;50.146;8.794;2024-01-10T00:22:37;35.77;;;18.83;;
84168;SDS011;74295;50.146;8.794;2024-01-10T00:32:40;38.73;;;18.20;;
84168;SDS011;74295;50.146;8.794;2024-01-10T00:42:44;40.77;;;17.53;;
84168;SDS011;74295;50.146;8.794;2024-01-10T00:52:46;42.73;;;17.83;;
84168;SDS011;74295;50.146;8.794;2024-01-10T01:02:50;42.20;;;20.10;;
84168;SDS011;74295;50.146;8.794;2024-01-10T01:12:53;38.03;;;19.57;;
84168;SDS011;74295;50.146;8.794;2024-01-10T01:22:57;37.97;;;18.50;;
84168;SDS011;74295;50.146;8.794;2024-01-10T01:33:00;41.00;;;18.83;;
84168;SDS011;74295;50.146;8.794;2024-01-10T01:43:19;39.73;;;17.97;;
84168;SDS011;74295;50.146;8.794;2024-01-10T01:53:22;37.10;;;18.70;;
84168;SDS011;74295;50.146;8.794;2024-01-10T02:03:27;39.77;;;20.13;;
84168;SDS011;74295;50.146;8.794;2024-01-10T02:13:30;44.97;;;19.17;;
84168;SDS011;74295;50.146;8.794;2024-01-10T02:23:35;38.23;;;18.93;;
84168;SDS011;74295;50.146;8.794;2024-01-10T02:33:39;48.07;;;20.37;;
84168;SDS011;74295;50.146;8.794;2024-01-10T02:43:41;46.50;;;19.83;;
84168;SDS011;74295;50.146;8.794;2024-01-10T02:53:45;27.03;;;14.83;;
84168;SDS011;74295;50.146;8.794;2024-01-10T03:03:48;45.47;;;21.47;;
84168;SDS011;74295;50.146;8.794;2024-01-10T03:14:00;41.37;;;17.87;;
84168;SDS011;74295;50.146;8.794;2024-01-10T03:24:04;45.83;;;20.70;;
84168;SDS011;74295;50.146;8.794;2024-01-10T03:34:08;43.83;;;21.00;;
84168;SDS011;74295;50.146;8.794;2024-01-10T03:44:11;37.10;;;17.73;;
84168;SDS011;74295;50.146;8.794;2024-01-10T03:54:15;38.10;;;18.40;;
84168;SDS011;74295;50.146;8.794;2024-01-10T04:04:18;41.87;;;17.80;;
84168;SDS011;74295;50.146;8.794;2024-01-10T04:14:22;51.20;;;20.77;;
84168;SDS011;74295;50.146;8.794;2024-01-10T04:24:24;37.93;;;18.07;;
84168;SDS011;74295;50.146;8.794;2024-01-10T04:34:28;39.63;;;19.93;;
84168;SDS011;74295;50.146;8.794;2024-01-10T04:44:31;42.43;;;19.60;;
84168;SDS011;74295;50.146;8.794;2024-01-10T04:54:35;43.40;;;19.90;;
84168;SDS011;74295;50.146;8.794;2024-01-10T05:04:37;47.43;;;20.43;;
84168;SDS011;74295;50.146;8.794;2024-01-10T05:14:41;42.60;;;20.00;;
84168;SDS011;74295;50.146;8.794;2024-01-10T05:24:44;42.40;;;18.77;;
84168;SDS011;74295;50.146;8.794;2024-01-10T05:34:49;34.10;;;17.00;;
84168;SDS011;74295;50.146;8.794;2024-01-10T05:44:52;38.70;;;18.17;;
84168;SDS011;74295;50.146;8.794;2024-01-10T05:54:55;34.53;;;17.90;;
84168;SDS011;74295;50.146;8.794;2024-01-10T06:04:58;41.17;;;19.23;;
84168;SDS011;74295;50.146;8.794;2024-01-10T06:15:07;41.83;;;18.00;;
84168;SDS011;74295;50.146;8.794;2024-01-10T06:25:11;39.40;;;18.77;;
84168;SDS011;74295;50.146;8.794;2024-01-10T06:35:15;45.17;;;21.10;;
84168;SDS011;74295;50.146;8.794;2024-01-10T06:45:18;45.73;;;20.67;;
84168;SDS011;74295;50.146;8.794;2024-01-10T06:55:22;42.67;;;19.63;;
84168;SDS011;74295;50.146;8.794;2024-01-10T07:05:26;50.63;;;21.00;;
84168;SDS011;74295;50.146;8.794;2024-01-10T07:15:30;45.00;;;20.50;;
84168;SDS011;74295;50.146;8.794;2024-01-10T07:25:33;44.60;;;21.57;;
84168;SDS011;74295;50.146;8.794;2024-01-10T07:35:37;45.77;;;21.10;;
84168;SDS011;74295;50.146;8.794;2024-01-10T07:45:40;40.17;;;19.17;;
84168;SDS011;74295;50.146;8.794;2024-01-10T07:55:44;37.33;;;18.53;;
84168;SDS011;74295;50.146;8.794;2024-01-10T08:05:47;38.87;;;20.03;;
84168;SDS011;74295;50.146;8.794;2024-01-10T08:15:51;42.57;;;20.50;;
84168;SDS011;74295;50.146;8.794;2024-01-10T08:25:54;43.33;;;21.17;;
84168;SDS011;74295;50.146;8.794;2024-01-10T08:35:58;39.90;;;18.70;;
84168;SDS011;74295;50.146;8.794;2024-01-10T08:46:01;33.10;;;16.83;;
84168;SDS011;74295;50.146;8.794;2024-01-10T08:56:05;43.93;;;21.43;;
84168;SDS011;74295;50.146;8.794;2024-01-10T09:06:08;43.07;;;20.60;;
84168;SDS011;74295;50.146;8.794;2024-01-10T09:16:14;43.13;;;19.57;;
84168;SDS011;74295;50.146;8.794;2024-01-10T09:26:16;40.60;;;20.40;;
84168;SDS011;74295;50.146;8.794;2024-01-10T09:36:21;42.10;;;20.40;;
84168;SDS011;74295;50.146;8.794;2024-01-10T09:46:23;49.00;;;21.37;;
84168;SDS011;74295;50.146;8.794;2024-01-10T09:56:28;41.77;;;21.20;;
84168;SDS011;74295;50.146;8.794;2024-01-10T10:06:31;45.70;;;21.07;;
84168;SDS011;74295;50.146;8.794;2024-01-10T10:16:35;47.83;;;22.47;;
84168;SDS011;74295;50.146;8.794;2024-01-10T10:26:38;45.53;;;21.20;;
84168;SDS011;74295;50.146;8.794;2024-01-10T10:36:43;45.50;;;21.57;;
84168;SDS011;74295;50.146;8.794;2024-01-10T10:46:46;46.40;;;20.83;;
84168;SDS011;74295;50.146;8.794;2024-01-10T10:56:54;46.83;;;23.33;;
84168;SDS011;74295;50.146;8.794;2024-01-10T11:06:59;40.23;;;22.33;;
84168;SDS011;74295;50.146;8.794;2024-01-10T11:17:10;41.67;;;22.70;;
84168;SDS011;74295;50.146;8.794;2024-01-10T11:27:26;52.73;;;22.83;;
84168;SDS011;74295;50.146;8.794;2024-01-10T11:37:38;48.50;;;21.27;;
84168;SDS011;74295;50.146;8.794;2024-01-10T11:47:41;43.40;;;22.83;;
84168;SDS011;74295;50.146;8.794;2024-01-10T11:57:46;42.97;;;20.80;;
84168;SDS011;74295;50.146;8.794;2024-01-10T12:08:10;40.97;;;20.73;;
84168;SDS011;74295;50.146;8.794;2024-01-10T12:18:14;39.13;;;21.30;;
84168;SDS011;74295;50.146;8.794;2024-01-10T12:28:16;42.70;;;22.17;;
84168;SDS011;74295;50.146;8.794;2024-01-10T12:38:20;43.33;;;21.17;;
84168;SDS011;74295;50.146;8.794;2024-01-10T12:48:23;36.57;;;20.47;;
84168;SDS011;74295;50.146;8.794;2024-01-10T12:58:28;41.13;;;21.47;;
84168;SDS011;74295;50.146;8.794;2024-01-10T13:08:31;41.93;;;20.73;;
84168;SDS011;74295;50.146;8.794;2024-01-10T13:18:35;42.83;;;21.27;;
84168;SDS011;74295;50.146;8.794;2024-01-10T13:28:38;40.77;;;20.87;;
84168;SDS011;74295;50.146;8.794;2024-01-10T13:38:43;40.07;;;20.83;;
84168;SDS011;74295;50.146;8.794;2024-01-10T13:48:46;43.07;;;19.87;;
84168;SDS011;74295;50.146;8.794;2024-01-10T13:58:50;38.53;;;20.80;;
84168;SDS011;74295;50.146;8.794;2024-01-10T14:08:52;37.83;;;20.57;;
84168;SDS011;74295;50.146;8.794;2024-01-10T14:18:56;40.37;;;20.63;;
84168;SDS011;74295;50.146;8.794;2024-01-10T14:28:59;37.77;;;21.13;;
84168;SDS011;74295;50.146;8.794;2024-01-10T14:39:03;39.10;;;21.07;;
84168;SDS011;74295;50.146;8.794;2024-01-10T14:49:08;40.57;;;21.47;;
84168;SDS011;74295;50.146;8.794;2024-01-10T14:59:12;42.00;;;20.73;;
84168;SDS011;74295;50.146;8.794;2024-01-10T15:09:15;38.23;;;21.63;;
84168;SDS011;74295;50.146;8.794;2024-01-10T15:19:19;38.13;;;20.33;;
84168;SDS011;74295;50.146;8.794;2024-01-10T15:29:22;45.93;;;20.77;;
84168;SDS011;74295;50.146;8.794;2024-01-10T15:39:26;43.17;;;22.40;;
84168;SDS011;74295;50.146;8.794;2024-01-10T15:49:29;39.27;;;22.10;;
84168;SDS011;74295;50.146;8.794;2024-01-10T15:59:33;42.80;;;23.40;;
84168;SDS011;74295;50.146;8.794;2024-01-10T16:09:36;38.57;;;21.07;;
84168;SDS011;74295;50.146;8.794;2024-01-10T16:19:40;44.60;;;23.93;;
84168;SDS011;74295;50.146;8.794;2024-01-10T16:29:43;44.87;;;22.67;;
84168;SDS011;74295;50.146;8.794;2024-01-10T16:39:47;46.80;;;24.50;;
84168;SDS011;74295;50.146;8.794;2024-01-10T16:49:51;48.17;;;25.63;;
84168;SDS011;74295;50.146;8.794;2024-01-10T16:59:55;56.77;;;29.20;;
84168;SDS011;74295;50.146;8.794;2024-01-10T17:09:58;121.27;;;58.10;;
84168;SDS011;74295;50.146;8.794;2024-01-10T17:20:02;87.57;;;42.37;;
84168;SDS011;74295;50.146;8.794;2024-01-10T17:30:06;49.63;;;24.87;;
84168;SDS011;74295;50.146;8.794;2024-01-10T17:40:11;50.73;;;24.97;;
84168;SDS011;74295;50.146;8.794;2024-01-10T17:50:14;56.97;;;26.87;;
84168;SDS011;74295;50.146;8.794;2024-01-10T18:00:21;51.23;;;26.20;;
84168;SDS011;74295;50.146;8.794;2024-01-10T18:10:24;48.83;;;25.27;;
84168;SDS011;74295;50.146;8.794;2024-01-10T18:20:28;49.63;;;24.27;;
84168;SDS011;74295;50.146;8.794;2024-01-10T18:30:31;49.50;;;24.27;;
84168;SDS011;74295;50.146;8.794;2024-01-10T18:40:35;52.33;;;26.77;;
84168;SDS011;74295;50.146;8.794;2024-01-10T18:50:38;40.87;;;22.97;;
84168;SDS011;74295;50.146;8.794;2024-01-10T19:00:43;46.20;;;23.57;;
84168;SDS011;74295;50.146;8.794;2024-01-10T19:10:46;48.27;;;24.07;;
84168;SDS011;74295;50.146;8.794;2024-01-10T19:20:51;53.57;;;26.03;;
84168;SDS011;74295;50.146;8.794;2024-01-10T19:30:53;50.37;;;26.17;;
84168;SDS011;74295;50.146;8.794;2024-01-10T19:40:58;55.17;;;26.77;;
84168;SDS011;74295;50.146;8.794;2024-01-10T19:51:01;53.93;;;26.37;;
84168;SDS011;74295;50.146;8.794;2024-01-10T20:01:05;54.70;;;28.20;;
84168;SDS011;74295;50.146;8.794;2024-01-10T20:11:08;57.90;;;26.97;;
84168;SDS011;74295;50.146;8.794;2024-01-10T20:21:14;52.03;;;26.10;;
84168;SDS011;74295;50.146;8.794;2024-01-10T20:31:17;62.43;;;29.63;;
84168;SDS011;74295;50.146;8.794;2024-01-10T20:41:21;54.43;;;27.67;;
84168;SDS011;74295;50.146;8.794;2024-01-10T20:51:23;56.30;;;26.87;;
84168;SDS011;74295;50.146;8.794;2024-01-10T21:01:28;54.53;;;27.30;;
84168;SDS011;74295;50.146;8.794;2024-01-10T21:11:30;51.53;;;27.70;;
84168;SDS011;74295;50.146;8.794;2024-01-10T21:21:34;61.07;;;32.30;;
84168;SDS011;74295;50.146;8.794;2024-01-10T21:31:37;54.80;;;27.87;;
84168;SDS011;74295;50.146;8.794;2024-01-10T21:41:41;54.40;;;28.27;;
84168;SDS011;74295;50.146;8.794;2024-01-10T21:51:44;59.83;;;30.57;;
84168;SDS011;74295;50.146;8.794;2024-01-10T22:01:48;83.23;;;37.30;;
84168;SDS011;74295;50.146;8.794;2024-01-10T22:11:51;94.67;;;43.70;;
84168;SDS011;74295;50.146;8.794;2024-01-10T22:21:55;58.57;;;27.07;;
84168;SDS011;74295;50.146;8.794;2024-01-10T22:31:58;56.27;;;26.37;;
84168;SDS011;74295;50.146;8.794;2024-01-10T22:42:02;50.20;;;25.83;;
84168;SDS011;74295;50.146;8.794;2024-01-10T22:52:05;47.67;;;23.77;;
84168;SDS011;74295;50.146;8.794;2024-01-10T23:02:09;49.50;;;24.23;;
84168;SDS011;74295;50.146;8.794;2024-01-10T23:12:14;46.27;;;22.07;;
84168;SDS011;74295;50.146;8.794;2024-01-10T23:22:17;42.47;;;22.57;;
84168;SDS011;74295;50.146;8.794;2024-01-10T23:32:21;43.30;;;23.13;;
84168;SDS011;74295;50.146;8.794;2024-01-10T23:42:26;45.47;;;23.03;;
84168;SDS011;74295;50.146;8.794;2024-01-10T23:52:28;44.00;;;23.07;;
